Time;durP1;ratioP1;P1;durP2;ratioP2;P2;SDS_P1;SDS_P2;PMS_P1;PMS_P2;Temp;Humidity;BMP_temperature;BMP_pressure;BME280_temperature;BME280_humidity;BME280_pressure;Samples;Min_cycle;Max_cycle;Signal;HPM_P1;HPM_P2
2022/07/12 00:01:48;;;;;;;7.37;3.77;;;;;;;-145.69;100.00;71991.44;5074336;28;20206;-82
2022/07/12 00:04:14;;;;;;;6.13;3.60;;;;;;;-145.69;100.00;71979.50;5073446;28;20203;-83
2022/07/12 00:06:42;;;;;;;5.20;3.20;;;;;;;-145.69;100.00;71991.44;5074483;28;20210;-83
2022/07/12 00:09:09;;;;;;;6.43;3.93;;;;;;;-145.69;100.00;71991.44;5074435;28;20202;-84
2022/07/12 00:11:37;;;;;;;5.80;3.83;;;;;;;-145.69;100.00;71987.47;5074286;28;20231;-83
2022/07/12 00:14:03;;;;;;;5.27;3.90;;;;;;;-145.69;100.00;71989.44;5074233;28;20205;-84
2022/07/12 00:16:32;;;;;;;6.20;4.00;;;;;;;-145.69;100.00;71987.47;5073710;28;20209;-82
2022/07/12 00:18:59;;;;;;;6.07;3.90;;;;;;;-145.69;100.00;71993.44;5074045;28;20207;-83
2022/07/12 00:21:27;;;;;;;4.97;3.90;;;;;;;-145.69;100.00;71995.41;5074017;28;20661;-84
2022/07/12 00:23:55;;;;;;;6.10;3.73;;;;;;;-145.69;100.00;71999.41;5073768;28;20198;-83
2022/07/12 00:26:22;;;;;;;5.27;3.93;;;;;;;-145.69;100.00;71999.41;5074159;28;20198;-84
2022/07/12 00:28:48;;;;;;;4.57;3.70;;;;;;;-145.69;100.00;72003.38;5073938;28;20642;-83
2022/07/12 00:31:15;;;;;;;5.23;3.90;;;;;;;-145.69;100.00;72007.34;5073994;28;20202;-83
2022/07/12 00:33:41;;;;;;;5.63;3.80;;;;;;;-145.69;100.00;72021.28;5074024;28;20206;-84
2022/07/12 00:36:09;;;;;;;7.77;4.00;;;;;;;-145.69;100.00;72023.28;5073574;28;20193;-82
2022/07/12 00:38:39;;;;;;;6.97;4.37;;;;;;;-145.69;100.00;72025.28;5073620;28;20199;-83
2022/07/12 00:41:07;;;;;;;6.40;4.10;;;;;;;-145.69;100.00;72023.28;5073866;28;20207;-83
2022/07/12 00:43:33;;;;;;;5.40;4.30;;;;;;;-145.69;100.00;72013.31;5073801;28;20203;-84
2022/07/12 00:46:00;;;;;;;6.28;4.68;;;;;;;-145.69;100.00;72017.31;5072936;28;20430;-82
2022/07/12 00:48:26;;;;;;;6.43;4.40;;;;;;;-145.69;100.00;72007.34;5073667;28;20198;-83
2022/07/12 00:50:53;;;;;;;5.50;4.03;;;;;;;-145.69;100.00;71995.41;5073218;28;20233;-83
2022/07/12 00:53:23;;;;;;;10.07;3.97;;;;;;;-145.69;100.00;71991.44;5073415;28;20236;-83
2022/07/12 00:55:53;;;;;;;6.47;4.33;;;;;;;-145.69;100.00;71995.41;5073141;28;20198;-83
2022/07/12 00:58:24;;;;;;;4.90;3.57;;;;;;;-145.69;100.00;71987.47;5073452;28;20206;-82
2022/07/12 01:00:51;;;;;;;7.30;4.00;;;;;;;-145.69;100.00;71989.44;5073267;28;20669;-83
2022/07/12 01:03:19;;;;;;;5.60;3.83;;;;;;;-145.69;100.00;71997.41;5073534;28;20202;-83
2022/07/12 01:05:48;;;;;;;8.17;4.40;;;;;;;-145.69;100.00;72003.38;5073099;28;20206;-84
2022/07/12 01:08:16;;;;;;;7.40;4.60;;;;;;;-145.69;100.00;71999.41;5073246;28;20198;-81
2022/07/12 01:10:44;;;;;;;7.90;4.43;;;;;;;-145.69;100.00;71999.41;5073466;28;20202;-84
2022/07/12 01:13:11;;;;;;;6.90;4.03;;;;;;;-145.69;100.00;71989.44;5073008;28;20705;-82
2022/07/12 01:15:40;;;;;;;6.90;4.03;;;;;;;-145.69;100.00;71991.44;5072929;28;20202;-82
2022/07/12 01:18:07;;;;;;;6.67;4.20;;;;;;;-145.69;100.00;72003.38;5071300;28;20202;-83
2022/07/12 01:20:34;;;;;;;11.97;4.77;;;;;;;-145.69;100.00;72003.38;5053206;28;20199;-84
2022/07/12 01:23:03;;;;;;;6.37;4.33;;;;;;;-145.69;100.00;72009.34;5053185;28;20196;-83
2022/07/12 01:25:30;;;;;;;5.40;4.07;;;;;;;-145.69;100.00;72007.34;5064289;28;20253;-83
2022/07/12 01:27:56;;;;;;;5.97;4.27;;;;;;;-145.69;100.00;71995.41;5065315;28;20209;-85
2022/07/12 01:30:38;;;;;;;8.60;4.47;;;;;;;-145.69;100.00;71999.41;5066432;28;20206;-83
2022/07/12 01:33:07;;;;;;;11.63;4.23;;;;;;;-145.69;100.00;72011.34;5072968;28;20264;-85
2022/07/12 01:35:35;;;;;;;6.77;4.30;;;;;;;-145.69;100.00;72003.38;5073148;28;20623;-82
2022/07/12 01:38:03;;;;;;;7.53;3.90;;;;;;;-145.69;100.00;72011.34;5073017;28;20209;-83
2022/07/12 01:40:31;;;;;;;6.43;4.30;;;;;;;-145.69;100.00;72015.31;5072911;28;20645;-83
2022/07/12 01:42:58;;;;;;;7.40;4.30;;;;;;;-145.69;100.00;72029.25;5072028;28;20191;-83
2022/07/12 01:45:24;;;;;;;6.53;4.20;;;;;;;-145.69;100.00;72023.28;5072883;28;20194;-84
2022/07/12 01:47:51;;;;;;;7.70;4.47;;;;;;;-145.69;100.00;72015.31;5073205;28;20202;-84
2022/07/12 01:50:17;;;;;;;8.60;4.93;;;;;;;-145.69;100.00;71999.41;5073415;28;20231;-84
2022/07/12 01:52:45;;;;;;;7.37;5.07;;;;;;;-145.69;100.00;71999.41;5073684;28;20226;-86
2022/07/12 01:55:13;;;;;;;6.73;4.47;;;;;;;-145.69;100.00;72003.38;5073512;28;20198;-84
2022/07/12 01:57:41;;;;;;;10.63;4.03;;;;;;;-145.69;100.00;72007.34;5076789;28;20206;-86
2022/07/12 02:00:11;;;;;;;6.80;4.40;;;;;;;-145.69;100.00;71995.41;5074131;28;20218;-85
2022/07/12 02:02:38;;;;;;;6.20;4.40;;;;;;;-145.69;100.00;71999.41;5073410;28;20207;-85
2022/07/12 02:05:08;;;;;;;8.13;4.57;;;;;;;-145.69;100.00;71991.44;5073083;28;20285;-85
2022/07/12 02:07:36;;;;;;;6.73;4.57;;;;;;;-145.69;100.00;71987.47;5072944;28;20673;-83
2022/07/12 02:10:05;;;;;;;9.43;4.80;;;;;;;-145.69;100.00;71993.44;5073092;28;20203;-84
2022/07/12 02:12:33;;;;;;;6.47;4.23;;;;;;;-145.69;100.00;71999.41;5072418;28;20237;-85
2022/07/12 02:15:00;;;;;;;7.37;4.17;;;;;;;-145.69;100.00;72027.25;5071953;28;20198;-83
2022/07/12 02:17:29;;;;;;;7.40;4.60;;;;;;;-145.69;100.00;72045.16;5072609;28;20206;-85
2022/07/12 02:19:55;;;;;;;6.00;4.37;;;;;;;-145.69;100.00;72065.06;5072520;28;20198;-82
2022/07/12 02:22:21;;;;;;;9.30;5.40;;;;;;;-145.69;100.00;72075.03;5072500;28;20209;-83
2022/07/12 02:24:48;;;;;;;7.33;4.27;;;;;;;-145.69;100.00;72077.00;5072350;28;20657;-83
2022/07/12 02:27:14;;;;;;;7.63;4.10;;;;;;;-145.69;100.00;72086.97;5072891;28;20203;-83
2022/07/12 02:29:42;;;;;;;5.00;3.70;;;;;;;-145.69;100.00;72098.91;5076405;28;20195;-83
2022/07/12 02:32:09;;;;;;;5.53;3.90;;;;;;;-145.69;100.00;72114.81;5076106;28;20206;-83
2022/07/12 02:34:35;;;;;;;7.10;4.03;;;;;;;-145.69;100.00;72118.81;5076029;28;20198;-83
2022/07/12 02:37:02;;;;;;;6.50;3.77;;;;;;;-145.69;100.00;72114.81;5076133;28;20199;-82
2022/07/12 02:39:32;;;;;;;7.20;4.33;;;;;;;-145.69;100.00;72122.78;5075907;28;20290;-82
2022/07/12 02:41:59;;;;;;;6.53;4.20;;;;;;;-145.69;100.00;72134.72;5075517;28;20194;-81
2022/07/12 02:44:25;;;;;;;7.50;4.20;;;;;;;-145.69;100.00;72146.69;5075837;28;20195;-82
2022/07/12 02:46:53;;;;;;;6.87;4.47;;;;;;;-145.69;100.00;72152.66;5075824;28;20203;-82
2022/07/12 02:49:20;;;;;;;10.23;4.90;;;;;;;-145.69;100.00;72142.69;5075844;28;20309;-82
2022/07/12 02:51:46;;;;;;;9.17;5.37;;;;;;;-145.69;100.00;72130.75;5075789;28;20217;-82
2022/07/12 02:54:13;;;;;;;8.43;5.10;;;;;;;-145.69;100.00;72138.72;5075500;28;20266;-82
2022/07/12 02:56:40;;;;;;;6.37;4.50;;;;;;;-145.69;100.00;72142.69;5075781;28;20225;-82
2022/07/12 02:59:07;;;;;;;6.80;4.33;;;;;;;-145.69;100.00;72146.69;5075976;28;20394;-82
2022/07/12 03:01:34;;;;;;;6.83;4.50;;;;;;;-145.69;100.00;72144.69;5075300;28;20531;-81
2022/07/12 03:04:02;;;;;;;6.83;4.90;;;;;;;-145.69;100.00;72150.66;5075514;28;20201;-81
2022/07/12 03:06:29;;;;;;;10.02;5.53;;;;;;;-145.69;100.00;72144.69;5075215;28;20434;-79
2022/07/12 03:08:57;;;;;;;11.70;5.73;;;;;;;-145.69;100.00;72138.72;5075465;28;20253;-82
2022/07/12 03:11:23;;;;;;;11.57;5.80;;;;;;;-145.69;100.00;72138.72;5075180;28;20205;-83
2022/07/12 03:13:50;;;;;;;9.67;5.17;;;;;;;-145.69;100.00;72148.66;5075503;28;20279;-82
2022/07/12 03:16:16;;;;;;;10.13;5.10;;;;;;;-145.69;100.00;72152.66;5075446;28;20198;-82
2022/07/12 03:18:43;;;;;;;7.80;4.77;;;;;;;-145.69;100.00;72158.63;5075420;28;20699;-82
2022/07/12 03:21:12;;;;;;;9.20;5.00;;;;;;;-145.69;100.00;72154.63;5075042;28;20573;-82
2022/07/12 03:23:39;;;;;;;6.90;4.80;;;;;;;-145.69;100.00;72170.56;5075271;28;20211;-82
2022/07/12 03:26:07;;;;;;;6.80;4.50;;;;;;;-145.69;100.00;72198.41;5071601;28;20595;-83
2022/07/12 03:28:34;;;;;;;8.43;4.60;;;;;;;-145.69;100.00;72210.38;5055297;28;20664;-82
2022/07/12 03:31:01;;;;;;;8.40;4.90;;;;;;;-145.69;100.00;72210.38;5054981;28;20658;-84
2022/07/12 03:33:27;;;;;;;7.03;4.77;;;;;;;-145.69;100.00;72222.31;5068022;28;20254;-84
2022/07/12 03:35:54;;;;;;;8.73;5.50;;;;;;;-145.69;100.00;72218.31;5074944;28;20328;-83
2022/07/12 03:38:23;;;;;;;10.23;5.77;;;;;;;-145.69;100.00;72222.31;5074806;28;20221;-82
2022/07/12 03:40:50;;;;;;;7.63;4.87;;;;;;;-145.69;100.00;72226.28;5075058;28;20294;-83
2022/07/12 03:43:16;;;;;;;7.70;5.23;;;;;;;-145.69;100.00;72226.28;5075027;28;20198;-83
2022/07/12 03:45:43;;;;;;;9.07;5.63;;;;;;;-145.69;100.00;72220.31;5074841;28;20206;-82
2022/07/12 03:48:09;;;;;;;9.90;5.80;;;;;;;-145.69;100.00;72226.28;5074684;28;20682;-82
2022/07/12 03:50:36;;;;;;;12.67;6.40;;;;;;;-145.69;100.00;72218.31;5074469;28;20237;-84
2022/07/12 03:53:02;;;;;;;9.27;5.87;;;;;;;-145.69;100.00;72212.34;5074426;28;20223;-83
2022/07/12 03:55:30;;;;;;;8.50;5.50;;;;;;;-145.69;100.00;72230.25;5074701;28;20681;-84
2022/07/12 03:57:57;;;;;;;9.57;5.33;;;;;;;-145.69;100.00;72240.22;5074122;28;20285;-84
2022/07/12 04:00:26;;;;;;;6.43;4.97;;;;;;;-145.69;100.00;72246.19;5074352;28;20232;-83
2022/07/12 04:02:54;;;;;;;8.83;5.20;;;;;;;-145.69;100.00;72254.16;5074324;28;20256;-83
2022/07/12 04:05:20;;;;;;;8.63;4.90;;;;;;;-145.69;100.00;72250.16;5074544;28;20252;-84
2022/07/12 04:07:47;;;;;;;10.90;5.40;;;;;;;-145.69;100.00;72246.19;5074235;28;20199;-84
2022/07/12 04:10:13;;;;;;;8.23;5.30;;;;;;;-145.69;100.00;72238.22;5074363;28;20210;-84
2022/07/12 04:12:41;;;;;;;10.43;6.10;;;;;;;-145.69;100.00;72226.28;5074257;28;20311;-85
2022/07/12 04:15:08;;;;;;;9.13;5.70;;;;;;;-145.69;100.00;72230.25;5074246;28;20202;-84
2022/07/12 04:17:35;;;;;;;11.40;5.73;;;;;;;-145.69;100.00;72234.25;5073825;28;20199;-85
2022/07/12 04:20:01;;;;;;;9.77;5.37;;;;;;;-145.69;100.00;72238.22;5074071;28;20195;-84
2022/07/12 04:22:30;;;;;;;7.37;5.10;;;;;;;-145.69;100.00;72234.25;5074087;28;20297;-84
2022/07/12 04:24:57;;;;;;;9.97;5.47;;;;;;;-145.69;100.00;72228.28;5074264;28;20198;-84
2022/07/12 04:27:26;;;;;;;9.03;5.83;;;;;;;-145.69;100.00;72226.28;5074014;28;20206;-84
2022/07/12 04:29:54;;;;;;;9.10;5.73;;;;;;;-145.69;100.00;72232.25;5073886;28;20203;-83
2022/07/12 04:32:21;;;;;;;11.40;5.50;;;;;;;-145.69;100.00;72216.34;5073795;28;20199;-84
2022/07/12 04:34:49;;;;;;;17.00;6.30;;;;;;;-145.69;100.00;72206.38;5073700;28;20295;-84
2022/07/12 04:37:16;;;;;;;12.03;6.60;;;;;;;-145.69;100.00;72182.50;5073805;28;20217;-83
2022/07/12 04:39:47;;;;;;;12.43;6.27;;;;;;;-145.69;100.00;72196.44;5073671;28;20741;-84
2022/07/12 04:42:15;;;;;;;12.13;6.30;;;;;;;-145.69;100.00;72196.44;5073568;28;20194;-84
2022/07/12 04:44:42;;;;;;;12.43;6.20;;;;;;;-145.69;100.00;72202.41;5073486;28;20202;-84
2022/07/12 04:47:10;;;;;;;10.93;6.03;;;;;;;-145.69;100.00;72204.38;5073483;28;20301;-83
2022/07/12 04:49:36;;;;;;;10.67;5.63;;;;;;;-145.69;100.00;72204.38;5072618;28;20227;-83
2022/07/12 04:52:03;;;;;;;12.07;5.83;;;;;;;-145.69;100.00;72210.38;5073314;28;20285;-83
2022/07/12 04:54:30;;;;;;;10.53;6.17;;;;;;;-145.69;100.00;72198.41;5073449;28;20759;-84
2022/07/12 04:56:56;;;;;;;12.30;7.53;;;;;;;-145.69;100.00;72180.50;5073338;28;20206;-83
2022/07/12 04:59:23;;;;;;;12.50;6.90;;;;;;;-145.69;100.00;72160.59;5073056;28;20256;-83
2022/07/12 05:01:49;;;;;;;16.37;8.43;;;;;;;-145.69;100.00;72148.66;5073451;28;20546;-82
2022/07/12 05:04:17;;;;;;;16.10;7.90;;;;;;;-145.69;100.00;72130.75;5073425;28;20203;-84
2022/07/12 05:06:43;;;;;;;14.97;9.00;;;;;;;-145.69;100.00;72102.88;5073255;28;20245;-84
2022/07/12 05:09:10;;;;;;;13.10;8.43;;;;;;;-145.69;100.00;72084.97;5073295;28;20203;-84
2022/07/12 05:11:36;;;;;;;14.00;8.20;;;;;;;-145.69;100.00;72075.03;5072379;28;20205;-84
2022/07/12 05:14:03;;;;;;;17.13;7.87;;;;;;;-145.69;100.00;72067.06;5073339;28;20624;-83
2022/07/12 05:16:29;;;;;;;10.77;7.10;;;;;;;-145.69;100.00;72061.09;5073233;28;20213;-84
2022/07/12 05:18:55;;;;;;;13.20;6.77;;;;;;;-145.69;100.00;72053.13;5072885;28;20673;-84
2022/07/12 05:21:24;;;;;;;9.73;6.13;;;;;;;-145.69;100.00;72039.19;5071788;28;20214;-84
2022/07/12 05:23:50;;;;;;;10.73;6.63;;;;;;;-145.69;100.00;72031.25;5055113;28;20203;-85
2022/07/12 05:26:17;;;;;;;15.53;7.60;;;;;;;-145.69;100.00;72015.31;5052677;28;20195;-85
2022/07/12 05:28:43;;;;;;;11.70;7.03;;;;;;;-145.69;100.00;71993.44;5053141;28;20242;-84
2022/07/12 05:31:10;;;;;;;14.27;8.40;;;;;;;-145.69;100.00;71971.53;5052914;28;20625;-83
2022/07/12 05:33:36;;;;;;;12.83;6.97;;;;;;;-145.69;100.00;71953.63;5052755;28;20744;-84
2022/07/12 05:36:03;;;;;;;12.33;6.90;;;;;;;-145.69;100.00;71931.72;5052861;28;20566;-84
2022/07/12 05:38:31;;;;;;;12.07;6.68;;;;;;;-145.69;100.00;71895.91;5052942;28;20602;-85
2022/07/12 05:40:58;;;;;;;11.90;6.32;;;;;;;-145.69;100.00;71870.03;5052833;28;20208;-84
2022/07/12 05:43:27;;;;;;;8.90;6.32;;;;;;;-145.69;100.00;71826.25;5053039;28;20207;-83
2022/07/12 05:45:53;;;;;;;11.10;5.68;;;;;;;-145.69;100.00;71786.47;5052909;28;20265;-83
2022/07/12 05:48:20;;;;;;;8.52;5.95;;;;;;;-145.69;100.00;71688.94;5063648;28;20195;-83
2022/07/12 05:50:46;;;;;;;7.07;4.88;;;;;;;-145.69;100.00;71577.50;5073075;28;20280;-84
2022/07/12 05:53:24;;;;;;;7.45;3.92;;;;;;;-145.69;100.00;71480.00;5072526;28;20202;-83
2022/07/12 05:55:53;;;;;;;4.95;3.20;;;;;;;-145.69;100.00;71368.56;5072679;28;20210;-84
2022/07/12 05:58:21;;;;;;;7.93;2.80;;;;;;;-145.69;100.00;71263.09;5072662;28;20210;-83
2022/07/12 06:00:48;;;;;;;2.97;2.20;;;;;;;-145.69;100.00;71187.50;5072707;28;20206;-82
2022/07/12 06:03:15;;;;;;;2.67;2.10;;;;;;;-145.69;96.88;71127.81;5076745;28;20293;-83
2022/07/12 06:05:41;;;;;;;2.75;2.10;;;;;;;-145.69;91.71;71099.94;5076495;28;20202;-82
2022/07/12 06:08:08;;;;;;;2.63;2.10;;;;;;;-145.69;87.75;71101.94;5076506;28;21017;-81
2022/07/12 06:10:34;;;;;;;3.95;1.77;;;;;;;-145.69;84.41;71084.03;5076803;28;20210;-83
2022/07/12 06:13:03;;;;;;;2.08;1.70;;;;;;;-145.69;83.49;71099.94;5076608;28;20214;-82
2022/07/12 06:15:30;;;;;;;2.90;1.55;;;;;;;-145.69;82.96;71153.66;5076480;28;20538;-82
2022/07/12 06:17:57;;;;;;;2.38;1.80;;;;;;;-145.69;82.14;71143.72;5076269;28;20693;-81
2022/07/12 06:20:23;;;;;;;4.40;1.75;;;;;;;-145.69;80.91;71157.66;5075792;28;20277;-82
2022/07/12 06:22:52;;;;;;;2.65;1.88;;;;;;;-145.69;79.14;71111.88;5076223;28;20206;-81
2022/07/12 06:25:18;;;;;;;2.65;1.90;;;;;;;-145.69;81.06;71167.59;5076324;28;20199;-82
2022/07/12 06:27:49;;;;;;;4.25;2.00;;;;;;;-145.69;76.34;71068.13;5076364;28;20304;-81
2022/07/12 06:30:18;;;;;;;4.80;2.08;;;;;;;-145.69;76.80;71060.16;5076465;28;20230;-83
2022/07/12 06:32:46;;;;;;;3.92;1.70;;;;;;;-145.69;74.88;71046.22;5076062;28;20205;-80
2022/07/12 06:35:13;;;;;;;3.70;1.98;;;;;;;-145.69;74.47;71064.13;5075893;28;20242;-83
2022/07/12 06:37:39;;;;;;;2.58;1.70;;;;;;;-145.69;79.83;71056.16;5076232;28;20195;-83
2022/07/12 06:40:07;;;;;;;2.80;2.03;;;;;;;-145.69;74.30;71010.41;5076013;28;20199;-81
2022/07/12 06:42:33;;;;;;;3.45;2.40;;;;;;;-145.69;80.23;71090.00;5076001;28;20231;-83
2022/07/12 06:44:59;;;;;;;3.03;2.30;;;;;;;-145.69;78.26;71101.94;5076092;28;20281;-83
2022/07/12 06:47:27;;;;;;;4.22;2.20;;;;;;;-145.69;79.66;71117.84;5075308;28;20236;-83
2022/07/12 06:49:54;;;;;;;4.13;2.03;;;;;;;-145.69;80.62;71151.69;5075578;28;20268;-83
2022/07/12 06:52:20;;;;;;;3.65;2.97;;;;;;;-145.69;85.00;71203.41;5075985;28;20210;-83
2022/07/12 06:54:47;;;;;;;5.00;2.60;;;;;;;-145.69;81.14;71177.53;5075719;28;20714;-83
2022/07/12 06:57:13;;;;;;;3.20;2.13;;;;;;;-145.69;81.56;71175.56;5075451;28;20199;-84
2022/07/12 06:59:39;;;;;;;2.88;2.08;;;;;;;-145.69;82.14;71191.47;5075755;28;20332;-83
2022/07/12 07:02:06;;;;;;;2.58;2.30;;;;;;;-145.69;82.39;71189.47;5075574;28;20199;-83
2022/07/12 07:04:34;;;;;;;3.95;2.80;;;;;;;-145.69;82.94;71167.59;5075905;28;20203;-83
2022/07/12 07:07:00;;;;;;;3.88;2.45;;;;;;;-145.69;83.83;71157.66;5075484;28;20688;-82
2022/07/12 07:09:26;;;;;;;3.72;2.55;;;;;;;-145.69;85.39;71207.38;5075652;28;20206;-83
2022/07/12 07:11:53;;;;;;;4.07;2.55;;;;;;;-145.69;86.69;71263.09;5075489;28;20203;-84
2022/07/12 07:14:19;;;;;;;6.38;2.78;;;;;;;-145.69;86.24;71281.00;5074512;28;20226;-86
2022/07/12 07:16:46;;;;;;;3.08;2.50;;;;;;;-145.69;88.28;71338.72;5075323;28;20253;-83
2022/07/12 07:19:13;;;;;;;2.60;2.40;;;;;;;-145.69;90.39;71364.59;5074968;28;20611;-84
2022/07/12 07:21:40;;;;;;;3.70;2.72;;;;;;;-145.69;93.17;71390.47;5061591;28;20200;-84
2022/07/12 07:24:07;;;;;;;4.47;2.55;;;;;;;-145.69;93.64;71394.44;5055241;28;20211;-83
2022/07/12 07:26:34;;;;;;;4.28;2.85;;;;;;;-145.69;92.72;71388.47;5055231;28;20680;-82
2022/07/12 07:31:45;;;;;;;7.68;2.72;;;;;;;-145.69;96.74;71416.31;5055076;28;20210;-82
2022/07/12 07:34:11;;;;;;;3.80;2.97;;;;;;;-145.69;100.00;71424.28;5054917;28;20223;-82
2022/07/12 07:36:38;;;;;;;3.95;2.90;;;;;;;-145.69;99.35;71406.38;5054957;28;20663;-82
2022/07/12 07:39:06;;;;;;;5.40;3.20;;;;;;;-145.69;100.00;71420.31;5055006;28;20199;-82
2022/07/12 07:41:32;;;;;;;4.05;3.05;;;;;;;-145.69;99.30;71416.31;5054584;28;20204;-81
2022/07/12 07:43:59;;;;;;;7.22;3.17;;;;;;;-145.69;95.71;71388.47;5054579;28;20206;-82
2022/07/12 07:46:25;;;;;;;4.43;3.08;;;;;;;-145.69;95.52;71362.59;5055060;28;20200;-82
2022/07/12 07:48:51;;;;;;;5.80;3.20;;;;;;;-145.69;93.83;71350.66;5070923;28;20228;-81
2022/07/12 07:51:18;;;;;;;7.10;2.90;;;;;;;-145.69;93.29;71290.97;5074740;28;20206;-82
2022/07/12 07:53:44;;;;;;;5.72;2.83;;;;;;;-145.69;96.00;71253.16;5074663;28;20198;-81
2022/07/12 07:56:12;;;;;;;5.05;2.90;;;;;;;-145.69;90.16;71239.22;5074507;28;20557;-82
2022/07/12 07:58:39;;;;;;;4.28;3.10;;;;;;;-145.69;89.02;71255.16;5074878;28;20199;-81
2022/07/12 08:01:06;;;;;;;5.93;2.97;;;;;;;-145.69;90.43;71277.03;5074509;28;20199;-82
2022/07/12 08:03:32;;;;;;;3.25;2.85;;;;;;;-145.69;89.82;71257.13;5074482;28;20198;-82
2022/07/12 08:06:00;;;;;;;3.72;2.50;;;;;;;-145.69;86.88;71263.09;5073923;28;20198;-81
2022/07/12 08:08:27;;;;;;;5.30;2.70;;;;;;;-145.69;87.38;71229.28;5074047;28;20772;-82
2022/07/12 08:10:54;;;;;;;4.47;3.05;;;;;;;-145.69;84.70;71215.34;5074015;28;20237;-81
2022/07/12 08:13:22;;;;;;;5.28;2.97;;;;;;;-145.69;83.80;71219.34;5074477;28;20203;-81
2022/07/12 08:15:51;;;;;;;4.40;2.80;;;;;;;-145.69;84.36;71239.22;5074344;28;20230;-82
2022/07/12 08:18:18;;;;;;;5.10;2.70;;;;;;;-145.69;80.62;71231.28;5074328;28;20199;-81
2022/07/12 08:20:45;;;;;;;3.45;2.65;;;;;;;-145.69;82.35;71215.34;5074200;28;20565;-88
2022/07/12 08:23:11;;;;;;;6.07;2.60;;;;;;;-145.69;78.99;71229.28;5068546;28;20205;-81
2022/07/12 08:25:39;;;;;;;6.55;2.53;;;;;;;-145.69;80.20;71257.13;5052897;28;20203;-80
2022/07/12 08:28:05;;;;;;;5.63;2.60;;;;;;;-145.69;81.75;71247.19;5053632;28;20708;-79
2022/07/12 08:30:33;;;;;;;4.68;2.50;;;;;;;-145.69;81.67;71279.03;5053802;28;20291;-84
2022/07/12 08:33:00;;;;;;;2.72;2.20;;;;;;;-145.69;82.69;71263.09;5054027;28;20205;-83
2022/07/12 08:35:26;;;;;;;6.03;3.22;;;;;;;-145.69;80.15;71235.25;5057811;28;20581;-79
2022/07/12 08:37:54;;;;;;;4.35;2.67;;;;;;;-145.69;81.27;71255.16;5073564;28;20201;-79
2022/07/12 08:40:21;;;;;;;4.65;2.70;;;;;;;-145.69;83.65;71275.03;5073505;28;20228;-78
2022/07/12 08:42:47;;;;;;;3.60;2.80;;;;;;;-145.69;82.04;71294.94;5074071;28;20198;-80
2022/07/12 08:45:14;;;;;;;7.03;2.72;;;;;;;-145.69;82.05;71233.25;5073903;28;20203;-82
2022/07/12 08:47:42;;;;;;;3.75;2.67;;;;;;;-145.69;78.38;71191.47;5073942;28;20210;-81
2022/07/12 08:50:17;;;;;;;4.82;2.53;;;;;;;-145.69;73.77;71135.75;5074991;28;20292;-82
2022/07/12 08:52:47;;;;;;;7.63;3.10;;;;;;;-145.69;74.09;71119.84;5073997;28;20294;-84
2022/07/12 08:55:19;;;;;;;5.07;2.47;;;;;;;-145.69;74.94;71125.81;5073576;28;20317;-80
2022/07/12 08:57:46;;;;;;;5.07;2.90;;;;;;;-145.69;73.03;71109.91;5074570;28;20195;-87
2022/07/12 09:00:13;;;;;;;4.15;2.72;;;;;;;-145.69;73.33;71078.06;5073933;28;20207;-82
2022/07/12 09:02:48;;;;;;;5.15;2.80;;;;;;;-145.69;71.33;71123.81;5073319;28;20611;-80
2022/07/12 09:05:16;;;;;;;3.80;2.47;;;;;;;-145.69;72.33;71135.75;5073228;28;20281;-82
2022/07/12 09:07:43;;;;;;;4.18;2.28;;;;;;;-145.69;73.10;71185.50;5072986;28;20470;-79
2022/07/12 09:10:11;;;;;;;3.50;2.10;;;;;;;-145.69;68.37;71171.56;5073461;28;20657;-80
2022/07/12 09:12:40;;;;;;;3.75;2.15;;;;;;;-145.69;68.94;71131.78;5074141;28;20285;-84
2022/07/12 09:15:19;;;;;;;4.18;2.00;;;;;;;-145.69;68.21;71105.91;5069756;28;20254;-81
2022/07/12 09:17:58;;;;;;;3.08;2.30;;;;;;;-145.69;67.01;71084.03;5054700;28;20929;-82
2022/07/12 09:20:26;;;;;;;2.90;2.33;;;;;;;-145.69;69.66;71066.13;5053589;28;20206;-81
2022/07/12 09:22:57;;;;;;;5.30;2.25;;;;;;;-145.69;66.70;71066.13;5053420;28;20670;-84
2022/07/12 09:25:24;;;;;;;3.20;2.13;;;;;;;-145.69;66.59;71070.09;5054439;28;20650;-82
2022/07/12 09:27:54;;;;;;;2.80;2.20;;;;;;;-145.69;67.76;71036.28;5056140;28;20558;-86
2022/07/12 09:30:23;;;;;;;4.82;2.40;;;;;;;-145.69;70.08;71048.22;5054512;28;20662;-81
2022/07/12 09:38:21;;;;;;;5.60;2.38;;;;;;;-145.69;67.40;70994.50;5063488;28;20205;-82
2022/07/12 09:40:50;;;;;;;4.68;2.22;;;;;;;-145.69;64.64;70988.53;5074312;28;20229;-88
2022/07/12 09:43:18;;;;;;;4.68;2.15;;;;;;;-145.69;68.10;70992.50;5073276;28;20198;-81
2022/07/12 09:45:47;;;;;;;3.80;1.88;;;;;;;-145.69;62.24;70984.53;5072878;28;20202;-83
2022/07/12 09:48:14;;;;;;;2.85;2.05;;;;;;;-145.69;64.26;70962.66;5073635;28;20203;-80
2022/07/12 09:50:45;;;;;;;2.42;1.90;;;;;;;-145.69;63.89;70978.56;5072638;28;20242;-80
2022/07/12 09:53:20;;;;;;;3.95;2.17;;;;;;;-145.69;62.64;71000.47;5074244;28;20237;-81
2022/07/12 09:55:49;;;;;;;2.42;1.95;;;;;;;-145.69;66.08;71008.41;5072943;28;20236;-80
2022/07/12 09:58:22;;;;;;;6.45;2.17;;;;;;;-145.69;65.71;71008.41;5071834;28;20198;-80
2022/07/12 10:00:51;;;;;;;5.43;2.88;;;;;;;-145.69;65.54;71020.34;5072519;28;20294;-80
2022/07/12 10:03:21;;;;;;;3.58;2.47;;;;;;;-145.69;62.55;71034.28;5072586;28;20205;-83
2022/07/12 10:05:50;;;;;;;4.90;2.00;;;;;;;-145.69;63.79;71028.31;5071748;28;20194;-79
2022/07/12 10:08:18;;;;;;;5.60;2.55;;;;;;;-145.69;64.81;71042.25;5072538;28;20195;-80
2022/07/12 10:10:45;;;;;;;3.08;2.03;;;;;;;-145.69;61.08;71054.19;5072256;28;20190;-85
2022/07/12 10:13:11;;;;;;;9.00;3.15;;;;;;;-145.69;66.13;71044.22;5072269;28;20657;-79
2022/07/12 10:15:39;;;;;;;3.03;2.08;;;;;;;-145.69;61.29;71058.16;5072447;28;20718;-79
2022/07/12 10:18:06;;;;;;;2.30;2.10;;;;;;;-145.69;63.82;71006.44;5072879;28;20199;-81
2022/07/12 10:20:42;;;;;;;4.13;2.10;;;;;;;-145.69;64.25;71014.38;5072649;28;20305;-81
2022/07/12 10:23:31;;;;;;;3.25;1.75;;;;;;;-145.69;60.38;71024.34;5072600;28;20225;-81
2022/07/12 10:25:58;;;;;;;2.85;2.00;;;;;;;-145.69;67.53;71008.41;5071850;28;20205;-81
2022/07/12 10:28:59;;;;;;;3.28;2.42;;;;;;;-145.69;66.10;70998.47;5072108;28;20202;-83
2022/07/12 10:31:30;;;;;;;3.45;2.00;;;;;;;-145.69;60.77;71000.47;5074572;28;20205;-81
2022/07/12 10:34:20;;;;;;;3.22;2.00;;;;;;;-145.69;60.35;71000.47;5072327;28;20293;-80
2022/07/12 10:37:16;;;;;;;3.90;2.15;;;;;;;-145.69;63.33;70988.53;5072099;28;20233;-80
2022/07/12 10:40:14;;;;;;;2.50;2.08;;;;;;;-145.69;58.03;71000.47;5073369;28;20245;-82
2022/07/12 10:43:02;;;;;;;4.57;2.10;;;;;;;-145.69;59.68;71002.44;5072055;28;20210;-81
2022/07/12 10:45:32;;;;;;;6.18;2.13;;;;;;;-145.69;61.97;70970.63;5071543;28;20561;-81
2022/07/12 10:48:02;;;;;;;2.95;2.00;;;;;;;-145.69;62.22;70972.59;5072590;28;20199;-80
2022/07/12 10:50:58;;;;;;;2.88;2.00;;;;;;;-145.69;62.61;70938.78;5075845;28;20280;-83
2022/07/12 10:53:29;;;;;;;3.70;2.40;;;;;;;-145.69;62.50;70928.84;5076173;28;20198;-82
2022/07/12 10:56:15;;;;;;;2.95;2.20;;;;;;;-145.69;58.29;70942.75;5076035;28;20230;-82
2022/07/12 10:58:44;;;;;;;3.20;2.53;;;;;;;-145.69;57.18;70932.81;5075652;28;20202;-82
2022/07/12 11:01:15;;;;;;;3.78;2.00;;;;;;;-145.69;57.52;70920.88;5076789;28;20199;-83
2022/07/12 11:03:44;;;;;;;3.03;2.10;;;;;;;-145.69;59.83;70914.91;5075629;28;20214;-84
2022/07/12 11:06:12;;;;;;;2.63;1.92;;;;;;;-145.69;59.46;70914.91;5075619;28;20206;-81
2022/07/12 11:08:56;;;;;;;3.65;2.08;;;;;;;-145.69;60.52;70930.81;5075434;28;20678;-80
2022/07/12 11:11:24;;;;;;;3.25;1.77;;;;;;;-145.69;62.41;70916.91;5075280;28;20203;-80
2022/07/12 11:13:51;;;;;;;3.38;2.30;;;;;;;-145.69;59.77;70946.75;5075505;28;20596;-80
2022/07/12 11:16:19;;;;;;;4.18;1.90;;;;;;;-145.69;60.41;70940.78;5075153;28;20229;-80
2022/07/12 11:18:46;;;;;;;2.92;1.75;;;;;;;-145.69;62.02;70897.00;5075429;28;20203;-82
2022/07/12 11:21:13;;;;;;;4.13;1.95;;;;;;;-145.69;54.99;70881.09;5074853;28;20202;-82
2022/07/12 11:23:41;;;;;;;3.55;2.25;;;;;;;-145.69;61.97;70885.06;5075632;28;20198;-81
2022/07/12 11:26:09;;;;;;;1.98;1.67;;;;;;;-145.69;57.48;70869.16;5076699;28;20223;-82